首页
METAR-TAF:

METAR-TAF

机场 :

埃克塞特國際機場

埃克塞特, 英格兰

纬度: 50-44N, 经度: 003-25W, 海拔: 30米

当前天气观测

该预报发布于39分钟前的06:20 UTC
风速9节,风向北转东北
温度 9°C
湿度 93%
气压 1009 hPa
能见度10公里或以上
1500米以下无云,无积雨云

METAR: EGTE 200620Z 02009KT CAVOK 09/08 Q1009

时间: 07:59 (06:59 UTC)

预报

该预报发布于2小时和7分钟前的04:52 UTC
预报有效从20日的 06点(UTC)到 20日的 15点(UTC)
风速6节,风向
能见度10公里或以上
少量云层高于1500英尺

TAF: EGTE 200452Z 2006/2015 01006KT 9999 FEW015

超过4000个机场的气象观测和天气预报(METAR&TAF报告)。

可查询的气象台以黄色和红色小点在地图上表示。

将鼠标移到小点上方,可查看气象台名称。

然后点击查看天气观测和预报。

如需切换地图:点击带黑十字的绿色按钮放大地图;点击带横线的绿色按钮缩小地图;或者点击绿色箭头查看邻近地区的地图。


METAR-TAF: